Lake Mills, Wisconsin
Current Conditions -  °F | °C
As of 7:15 AM on Wednesday 22 Oct 2014 (Local Time) from KRYV Reporting Station
Scattered Clouds Scattered Clouds  
Wind Chill: 26°   Ceiling: Unl
Heat Index: 26°   Visibility: 7mi
Dew Point: 26°   Wind: 0mph
Humidity: 100%   Direction: NA
Pressure: 30.34"   Gusts: NA
Location:  43.08°N, 88.91°W
Report Text: KRYV 221215Z AUTO 00000KT 7SM SCT001 M03/M03 A3034 RMK AO2 T10311031
Loading
Personal Weather Stations






























Interactive Weather Map
Tropical Storm Tracking
New forecast layout! Learn more

10-Day Weather Forecast

Advertisements
Track Severe Weather on mobile